Hlavní strana
METAR-TAF:

METAR-TAF

Letiště :

Arauca, Kolumbie

zeměpisná šířka: 07-04N, zeměpisná délka: 070-44W, výška: 128 m

Aktuální stav počasí

Zpráva byla vytvořena před 1 hodinou a 0 minutami, v 13:00 UTC
Jihojihozápadní vítr 4 kt
Teplota 27°C
Vlhkost vzduchu 84%
Tlak 1014 hPa
Viditelnost 10 km a více
Oblačno až skoro zataženo ve výšce 2000 ft

METAR: SKUC 261300Z 20004KT 9999 BKN020 27/24 A2995

Čas: 09:00 (14:00 UTC)


TAF: chybějící

Stav a předpovědi počasí z více než 4 000 letišť (zprávy METAR a TAF).

Červené a žluté tečky na mapě představují dostupné meteorologické stanice.

Když kurzor umístíte na tečku, zobrazí se název stanice.

Pak kliknutím zobrazíte stav a předpověď počasí.

Chcete-li změnit mapu, kliknutím na zelené tlačítko se znaménkem +mapu přiblížíte, kliknutím na zelené tlačítko se znaménkem – mapu oddálíte a kliknutím na zelené šipky přejdete na sousední mapy.


METAR-TAF: